sensor_id;sensor_type;location;lat;lon;timestamp;pressure;altitude;pressure_sealevel;temperature
5571;BMP180;2808;51.240;6.794;2023-04-03T00:00:59;102417.00;;;3.30
5571;BMP180;2808;51.240;6.794;2023-04-03T00:03:27;102418.00;;;3.30
5571;BMP180;2808;51.240;6.794;2023-04-03T00:05:55;102416.00;;;3.30
5571;BMP180;2808;51.240;6.794;2023-04-03T00:08:22;102422.00;;;3.30
5571;BMP180;2808;51.240;6.794;2023-04-03T00:10:51;102415.00;;;3.20
5571;BMP180;2808;51.240;6.794;2023-04-03T00:13:19;102413.00;;;3.20
5571;BMP180;2808;51.240;6.794;2023-04-03T00:15:47;102413.00;;;3.20
5571;BMP180;2808;51.240;6.794;2023-04-03T00:18:15;102413.00;;;3.10
5571;BMP180;2808;51.240;6.794;2023-04-03T00:20:43;102417.00;;;3.10
5571;BMP180;2808;51.240;6.794;2023-04-03T00:23:10;102412.00;;;3.10
5571;BMP180;2808;51.240;6.794;2023-04-03T00:25:38;102417.00;;;3.10
5571;BMP180;2808;51.240;6.794;2023-04-03T00:28:07;102419.00;;;3.00
5571;BMP180;2808;51.240;6.794;2023-04-03T00:30:34;102408.00;;;2.90
5571;BMP180;2808;51.240;6.794;2023-04-03T00:33:02;102409.00;;;2.90
5571;BMP180;2808;51.240;6.794;2023-04-03T00:35:30;102410.00;;;2.90
5571;BMP180;2808;51.240;6.794;2023-04-03T00:37:57;102408.00;;;2.90
5571;BMP180;2808;51.240;6.794;2023-04-03T00:40:27;102397.00;;;3.00
5571;BMP180;2808;51.240;6.794;2023-04-03T00:42:57;102415.00;;;3.00
5571;BMP180;2808;51.240;6.794;2023-04-03T00:45:34;102408.00;;;3.00
5571;BMP180;2808;51.240;6.794;2023-04-03T00:48:05;102414.00;;;3.00
5571;BMP180;2808;51.240;6.794;2023-04-03T00:50:35;102411.00;;;3.00
5571;BMP180;2808;51.240;6.794;2023-04-03T00:53:04;102409.00;;;3.00
5571;BMP180;2808;51.240;6.794;2023-04-03T00:55:33;102412.00;;;3.00
5571;BMP180;2808;51.240;6.794;2023-04-03T00:58:03;102399.00;;;2.90
5571;BMP180;2808;51.240;6.794;2023-04-03T01:00:32;102410.00;;;2.90
5571;BMP180;2808;51.240;6.794;2023-04-03T01:03:02;102414.00;;;2.90
5571;BMP180;2808;51.240;6.794;2023-04-03T01:05:29;102412.00;;;2.90
5571;BMP180;2808;51.240;6.794;2023-04-03T01:07:57;102406.00;;;3.00
5571;BMP180;2808;51.240;6.794;2023-04-03T01:10:25;102410.00;;;2.90
5571;BMP180;2808;51.240;6.794;2023-04-03T01:12:53;102400.00;;;3.00
5571;BMP180;2808;51.240;6.794;2023-04-03T01:15:23;102414.00;;;3.00
5571;BMP180;2808;51.240;6.794;2023-04-03T01:17:55;102416.00;;;3.00
5571;BMP180;2808;51.240;6.794;2023-04-03T01:20:50;102398.00;;;3.00
5571;BMP180;2808;51.240;6.794;2023-04-03T01:23:47;102422.00;;;3.00
5571;BMP180;2808;51.240;6.794;2023-04-03T01:26:17;102420.00;;;3.00
5571;BMP180;2808;51.240;6.794;2023-04-03T01:28:45;102416.00;;;3.00
5571;BMP180;2808;51.240;6.794;2023-04-03T01:31:18;102420.00;;;3.00
5571;BMP180;2808;51.240;6.794;2023-04-03T01:33:48;102418.00;;;3.00
5571;BMP180;2808;51.240;6.794;2023-04-03T01:36:17;102415.00;;;3.00
5571;BMP180;2808;51.240;6.794;2023-04-03T01:38:45;102422.00;;;2.90
5571;BMP180;2808;51.240;6.794;2023-04-03T01:41:13;102420.00;;;2.90
5571;BMP180;2808;51.240;6.794;2023-04-03T01:43:41;102426.00;;;3.00
5571;BMP180;2808;51.240;6.794;2023-04-03T01:46:09;102424.00;;;3.00
5571;BMP180;2808;51.240;6.794;2023-04-03T01:48:36;102429.00;;;3.00
5571;BMP180;2808;51.240;6.794;2023-04-03T01:51:05;102420.00;;;3.00
5571;BMP180;2808;51.240;6.794;2023-04-03T01:53:33;102421.00;;;3.10
5571;BMP180;2808;51.240;6.794;2023-04-03T01:56:01;102418.00;;;3.10
5571;BMP180;2808;51.240;6.794;2023-04-03T01:58:28;102421.00;;;3.10
5571;BMP180;2808;51.240;6.794;2023-04-03T02:00:55;102426.00;;;3.10
5571;BMP180;2808;51.240;6.794;2023-04-03T02:03:23;102428.00;;;3.10
5571;BMP180;2808;51.240;6.794;2023-04-03T02:05:51;102432.00;;;3.10
5571;BMP180;2808;51.240;6.794;2023-04-03T02:08:21;102431.00;;;3.10
5571;BMP180;2808;51.240;6.794;2023-04-03T02:10:52;102424.00;;;3.00
5571;BMP180;2808;51.240;6.794;2023-04-03T02:13:20;102427.00;;;3.00
5571;BMP180;2808;51.240;6.794;2023-04-03T02:15:47;102428.00;;;3.00
5571;BMP180;2808;51.240;6.794;2023-04-03T02:18:15;102423.00;;;3.00
5571;BMP180;2808;51.240;6.794;2023-04-03T02:20:42;102424.00;;;3.00
5571;BMP180;2808;51.240;6.794;2023-04-03T02:23:10;102421.00;;;3.00
5571;BMP180;2808;51.240;6.794;2023-04-03T02:25:39;102422.00;;;3.00
5571;BMP180;2808;51.240;6.794;2023-04-03T02:28:07;102439.00;;;3.00
5571;BMP180;2808;51.240;6.794;2023-04-03T02:30:34;102428.00;;;3.00
5571;BMP180;2808;51.240;6.794;2023-04-03T02:33:02;102423.00;;;2.90
5571;BMP180;2808;51.240;6.794;2023-04-03T02:35:30;102435.00;;;2.90
5571;BMP180;2808;51.240;6.794;2023-04-03T02:37:57;102431.00;;;2.80
5571;BMP180;2808;51.240;6.794;2023-04-03T02:40:25;102432.00;;;2.80
5571;BMP180;2808;51.240;6.794;2023-04-03T02:42:53;102436.00;;;2.70
5571;BMP180;2808;51.240;6.794;2023-04-03T02:45:21;102438.00;;;2.70
5571;BMP180;2808;51.240;6.794;2023-04-03T02:47:48;102436.00;;;2.60
5571;BMP180;2808;51.240;6.794;2023-04-03T02:50:16;102426.00;;;2.60
5571;BMP180;2808;51.240;6.794;2023-04-03T02:52:44;102439.00;;;2.60
5571;BMP180;2808;51.240;6.794;2023-04-03T02:55:14;102435.00;;;2.60
5571;BMP180;2808;51.240;6.794;2023-04-03T02:57:42;102444.00;;;2.60
5571;BMP180;2808;51.240;6.794;2023-04-03T03:00:12;102431.00;;;2.50
5571;BMP180;2808;51.240;6.794;2023-04-03T03:02:40;102441.00;;;2.60
5571;BMP180;2808;51.240;6.794;2023-04-03T03:05:09;102440.00;;;2.50
5571;BMP180;2808;51.240;6.794;2023-04-03T03:07:36;102447.00;;;2.50
5571;BMP180;2808;51.240;6.794;2023-04-03T03:10:07;102438.00;;;2.50
5571;BMP180;2808;51.240;6.794;2023-04-03T03:12:34;102451.00;;;2.50
5571;BMP180;2808;51.240;6.794;2023-04-03T03:15:02;102441.00;;;2.60
5571;BMP180;2808;51.240;6.794;2023-04-03T03:17:31;102440.00;;;2.50
5571;BMP180;2808;51.240;6.794;2023-04-03T03:19:59;102443.00;;;2.50
5571;BMP180;2808;51.240;6.794;2023-04-03T03:22:27;102445.00;;;2.50
5571;BMP180;2808;51.240;6.794;2023-04-03T03:24:56;102445.00;;;2.60
5571;BMP180;2808;51.240;6.794;2023-04-03T03:27:23;102430.00;;;2.50
5571;BMP180;2808;51.240;6.794;2023-04-03T03:29:51;102440.00;;;2.50
5571;BMP180;2808;51.240;6.794;2023-04-03T03:32:19;102440.00;;;2.40
5571;BMP180;2808;51.240;6.794;2023-04-03T03:34:49;102437.00;;;2.40
5571;BMP180;2808;51.240;6.794;2023-04-03T03:37:17;102445.00;;;2.40
5571;BMP180;2808;51.240;6.794;2023-04-03T03:39:44;102450.00;;;2.40
5571;BMP180;2808;51.240;6.794;2023-04-03T03:42:12;102440.00;;;2.30
5571;BMP180;2808;51.240;6.794;2023-04-03T03:44:39;102439.00;;;2.30
5571;BMP180;2808;51.240;6.794;2023-04-03T03:47:07;102434.00;;;2.30
5571;BMP180;2808;51.240;6.794;2023-04-03T03:49:36;102436.00;;;2.30
5571;BMP180;2808;51.240;6.794;2023-04-03T03:52:05;102426.00;;;2.30
5571;BMP180;2808;51.240;6.794;2023-04-03T03:54:36;102443.00;;;2.20
5571;BMP180;2808;51.240;6.794;2023-04-03T03:57:04;102434.00;;;2.20
5571;BMP180;2808;51.240;6.794;2023-04-03T03:59:31;102433.00;;;2.20
5571;BMP180;2808;51.240;6.794;2023-04-03T04:01:59;102433.00;;;2.20
5571;BMP180;2808;51.240;6.794;2023-04-03T04:04:27;102433.00;;;2.20
5571;BMP180;2808;51.240;6.794;2023-04-03T04:06:54;102432.00;;;2.20
5571;BMP180;2808;51.240;6.794;2023-04-03T04:09:23;102441.00;;;2.20
5571;BMP180;2808;51.240;6.794;2023-04-03T04:11:52;102436.00;;;2.10
5571;BMP180;2808;51.240;6.794;2023-04-03T04:14:19;102432.00;;;2.10
5571;BMP180;2808;51.240;6.794;2023-04-03T04:16:50;102436.00;;;2.10
5571;BMP180;2808;51.240;6.794;2023-04-03T04:19:18;102448.00;;;2.10
5571;BMP180;2808;51.240;6.794;2023-04-03T04:21:45;102449.00;;;2.00
5571;BMP180;2808;51.240;6.794;2023-04-03T04:24:12;102450.00;;;2.00
5571;BMP180;2808;51.240;6.794;2023-04-03T04:26:41;102451.00;;;2.00
5571;BMP180;2808;51.240;6.794;2023-04-03T04:29:09;102450.00;;;2.00
5571;BMP180;2808;51.240;6.794;2023-04-03T04:31:37;102456.00;;;2.00
5571;BMP180;2808;51.240;6.794;2023-04-03T04:34:09;102457.00;;;2.00
5571;BMP180;2808;51.240;6.794;2023-04-03T04:36:36;102451.00;;;1.90
5571;BMP180;2808;51.240;6.794;2023-04-03T04:39:04;102450.00;;;1.90
5571;BMP180;2808;51.240;6.794;2023-04-03T04:41:32;102459.00;;;1.90
5571;BMP180;2808;51.240;6.794;2023-04-03T04:44:03;102465.00;;;1.90
5571;BMP180;2808;51.240;6.794;2023-04-03T04:46:31;102452.00;;;1.90
5571;BMP180;2808;51.240;6.794;2023-04-03T04:48:58;102462.00;;;1.90
5571;BMP180;2808;51.240;6.794;2023-04-03T04:51:26;102471.00;;;1.90
5571;BMP180;2808;51.240;6.794;2023-04-03T04:53:53;102467.00;;;1.90
5571;BMP180;2808;51.240;6.794;2023-04-03T04:56:21;102473.00;;;1.90
5571;BMP180;2808;51.240;6.794;2023-04-03T04:58:48;102470.00;;;1.80
5571;BMP180;2808;51.240;6.794;2023-04-03T05:01:17;102485.00;;;1.80
5571;BMP180;2808;51.240;6.794;2023-04-03T05:03:45;102484.00;;;1.80
5571;BMP180;2808;51.240;6.794;2023-04-03T05:06:13;102477.00;;;1.80
5571;BMP180;2808;51.240;6.794;2023-04-03T05:08:41;102482.00;;;1.80
5571;BMP180;2808;51.240;6.794;2023-04-03T05:11:08;102485.00;;;1.80
5571;BMP180;2808;51.240;6.794;2023-04-03T05:13:36;102489.00;;;1.80
5571;BMP180;2808;51.240;6.794;2023-04-03T05:16:04;102496.00;;;1.80
5571;BMP180;2808;51.240;6.794;2023-04-03T05:18:35;102489.00;;;1.80
5571;BMP180;2808;51.240;6.794;2023-04-03T05:21:03;102500.00;;;1.90
5571;BMP180;2808;51.240;6.794;2023-04-03T05:23:30;102500.00;;;1.90
5571;BMP180;2808;51.240;6.794;2023-04-03T05:25:58;102497.00;;;2.00
5571;BMP180;2808;51.240;6.794;2023-04-03T05:28:25;102503.00;;;2.00
5571;BMP180;2808;51.240;6.794;2023-04-03T05:30:57;102493.00;;;2.00
5571;BMP180;2808;51.240;6.794;2023-04-03T05:33:25;102494.00;;;2.00
5571;BMP180;2808;51.240;6.794;2023-04-03T05:35:55;102503.00;;;2.00
5571;BMP180;2808;51.240;6.794;2023-04-03T05:38:22;102505.00;;;1.90
5571;BMP180;2808;51.240;6.794;2023-04-03T05:40:50;102507.00;;;1.90
5571;BMP180;2808;51.240;6.794;2023-04-03T05:43:17;102501.00;;;1.90
5571;BMP180;2808;51.240;6.794;2023-04-03T05:45:45;102508.00;;;1.90
5571;BMP180;2808;51.240;6.794;2023-04-03T05:48:14;102519.00;;;2.00
5571;BMP180;2808;51.240;6.794;2023-04-03T05:50:41;102513.00;;;2.00
5571;BMP180;2808;51.240;6.794;2023-04-03T05:53:15;102526.00;;;2.00
5571;BMP180;2808;51.240;6.794;2023-04-03T05:55:45;102526.00;;;2.00
5571;BMP180;2808;51.240;6.794;2023-04-03T05:58:12;102542.00;;;2.00
5571;BMP180;2808;51.240;6.794;2023-04-03T06:00:40;102547.00;;;2.00
5571;BMP180;2808;51.240;6.794;2023-04-03T06:03:07;102532.00;;;2.10
5571;BMP180;2808;51.240;6.794;2023-04-03T06:05:35;102536.00;;;2.10
5571;BMP180;2808;51.240;6.794;2023-04-03T06:08:03;102536.00;;;2.10
5571;BMP180;2808;51.240;6.794;2023-04-03T06:10:32;102544.00;;;2.20
5571;BMP180;2808;51.240;6.794;2023-04-03T06:12:59;102527.00;;;2.20
5571;BMP180;2808;51.240;6.794;2023-04-03T06:15:26;102530.00;;;2.20
5571;BMP180;2808;51.240;6.794;2023-04-03T06:17:57;102537.00;;;2.30
5571;BMP180;2808;51.240;6.794;2023-04-03T06:20:24;102530.00;;;2.30
5571;BMP180;2808;51.240;6.794;2023-04-03T06:22:51;102538.00;;;2.40
5571;BMP180;2808;51.240;6.794;2023-04-03T06:25:19;102540.00;;;2.30
5571;BMP180;2808;51.240;6.794;2023-04-03T06:27:48;102542.00;;;2.30
5571;BMP180;2808;51.240;6.794;2023-04-03T06:30:16;102550.00;;;2.30
5571;BMP180;2808;51.240;6.794;2023-04-03T06:32:43;102541.00;;;2.20
5571;BMP180;2808;51.240;6.794;2023-04-03T06:35:11;102535.00;;;2.30
5571;BMP180;2808;51.240;6.794;2023-04-03T06:37:38;102527.00;;;2.40
5571;BMP180;2808;51.240;6.794;2023-04-03T06:40:09;102540.00;;;2.40
5571;BMP180;2808;51.240;6.794;2023-04-03T06:42:37;102543.00;;;2.50
5571;BMP180;2808;51.240;6.794;2023-04-03T06:45:09;102531.00;;;2.80
5571;BMP180;2808;51.240;6.794;2023-04-03T06:47:39;102528.00;;;3.20
5571;BMP180;2808;51.240;6.794;2023-04-03T06:50:07;102549.00;;;3.40
5571;BMP180;2808;51.240;6.794;2023-04-03T06:52:37;102541.00;;;3.70
5571;BMP180;2808;51.240;6.794;2023-04-03T06:55:06;102544.00;;;4.20
5571;BMP180;2808;51.240;6.794;2023-04-03T06:57:34;102541.00;;;4.10
5571;BMP180;2808;51.240;6.794;2023-04-03T07:00:02;102551.00;;;4.40
5571;BMP180;2808;51.240;6.794;2023-04-03T07:02:32;102545.00;;;4.60
5571;BMP180;2808;51.240;6.794;2023-04-03T07:05:00;102538.00;;;4.80
5571;BMP180;2808;51.240;6.794;2023-04-03T07:07:27;102543.00;;;4.90
5571;BMP180;2808;51.240;6.794;2023-04-03T07:09:55;102560.00;;;5.40
5571;BMP180;2808;51.240;6.794;2023-04-03T07:12:22;102568.00;;;5.90
5571;BMP180;2808;51.240;6.794;2023-04-03T07:14:50;102557.00;;;5.70
5571;BMP180;2808;51.240;6.794;2023-04-03T07:17:19;102556.00;;;5.90
5571;BMP180;2808;51.240;6.794;2023-04-03T07:23:28;102573.00;;;5.90
5571;BMP180;2808;51.240;6.794;2023-04-03T07:26:01;102567.00;;;5.80
5571;BMP180;2808;51.240;6.794;2023-04-03T07:28:33;102592.00;;;5.70
5571;BMP180;2808;51.240;6.794;2023-04-03T07:31:12;102563.00;;;5.30
5571;BMP180;2808;51.240;6.794;2023-04-03T07:33:41;102566.00;;;5.50
5571;BMP180;2808;51.240;6.794;2023-04-03T07:36:14;102566.00;;;5.70
5571;BMP180;2808;51.240;6.794;2023-04-03T07:38:43;102586.00;;;5.50
5571;BMP180;2808;51.240;6.794;2023-04-03T07:41:15;102582.00;;;5.60
5571;BMP180;2808;51.240;6.794;2023-04-03T07:43:45;102588.00;;;6.20
5571;BMP180;2808;51.240;6.794;2023-04-03T07:46:16;102573.00;;;6.00
5571;BMP180;2808;51.240;6.794;2023-04-03T07:48:44;102581.00;;;5.90
5571;BMP180;2808;51.240;6.794;2023-04-03T07:51:12;102580.00;;;6.10
5571;BMP180;2808;51.240;6.794;2023-04-03T07:53:42;102588.00;;;6.10
5571;BMP180;2808;51.240;6.794;2023-04-03T07:56:10;102588.00;;;6.50
5571;BMP180;2808;51.240;6.794;2023-04-03T07:58:40;102586.00;;;6.80
5571;BMP180;2808;51.240;6.794;2023-04-03T08:01:08;102578.00;;;6.90
5571;BMP180;2808;51.240;6.794;2023-04-03T08:03:39;102593.00;;;7.10
5571;BMP180;2808;51.240;6.794;2023-04-03T08:06:09;102585.00;;;6.80
5571;BMP180;2808;51.240;6.794;2023-04-03T08:08:38;102587.00;;;6.90
5571;BMP180;2808;51.240;6.794;2023-04-03T08:11:17;102586.00;;;6.80
5571;BMP180;2808;51.240;6.794;2023-04-03T08:13:48;102587.00;;;7.10
5571;BMP180;2808;51.240;6.794;2023-04-03T08:16:21;102616.00;;;7.20
5571;BMP180;2808;51.240;6.794;2023-04-03T08:18:49;102593.00;;;6.90
5571;BMP180;2808;51.240;6.794;2023-04-03T08:21:16;102589.00;;;6.50
5571;BMP180;2808;51.240;6.794;2023-04-03T08:23:44;102588.00;;;6.40
5571;BMP180;2808;51.240;6.794;2023-04-03T08:26:15;102595.00;;;6.40
5571;BMP180;2808;51.240;6.794;2023-04-03T08:28:43;102588.00;;;6.90
5571;BMP180;2808;51.240;6.794;2023-04-03T08:31:12;102598.00;;;6.60
5571;BMP180;2808;51.240;6.794;2023-04-03T08:33:40;102603.00;;;6.60
5571;BMP180;2808;51.240;6.794;2023-04-03T08:36:16;102579.00;;;6.50
5571;BMP180;2808;51.240;6.794;2023-04-03T08:38:44;102585.00;;;6.60
5571;BMP180;2808;51.240;6.794;2023-04-03T08:58:30;102594.00;;;6.80
5571;BMP180;2808;51.240;6.794;2023-04-03T09:08:35;102597.00;;;7.50
5571;BMP180;2808;51.240;6.794;2023-04-03T09:12:29;102593.00;;;7.90
5571;BMP180;2808;51.240;6.794;2023-04-03T09:15:35;102583.00;;;7.60
5571;BMP180;2808;51.240;6.794;2023-04-03T09:18:05;102592.00;;;7.40
5571;BMP180;2808;51.240;6.794;2023-04-03T09:20:42;102609.00;;;7.00
5571;BMP180;2808;51.240;6.794;2023-04-03T09:23:18;102599.00;;;6.80
5571;BMP180;2808;51.240;6.794;2023-04-03T09:25:46;102619.00;;;6.80
5571;BMP180;2808;51.240;6.794;2023-04-03T09:28:17;102594.00;;;6.90
5571;BMP180;2808;51.240;6.794;2023-04-03T09:30:46;102604.00;;;7.30
5571;BMP180;2808;51.240;6.794;2023-04-03T09:33:14;102589.00;;;6.90
5571;BMP180;2808;51.240;6.794;2023-04-03T09:35:43;102596.00;;;7.20
5571;BMP180;2808;51.240;6.794;2023-04-03T09:38:20;102598.00;;;7.20
5571;BMP180;2808;51.240;6.794;2023-04-03T09:40:49;102594.00;;;7.00
5571;BMP180;2808;51.240;6.794;2023-04-03T09:43:26;102598.00;;;7.10
5571;BMP180;2808;51.240;6.794;2023-04-03T09:45:55;102591.00;;;7.20
5571;BMP180;2808;51.240;6.794;2023-04-03T09:48:25;102591.00;;;6.90
5571;BMP180;2808;51.240;6.794;2023-04-03T09:50:59;102590.00;;;7.00
5571;BMP180;2808;51.240;6.794;2023-04-03T09:53:30;102585.00;;;6.90
5571;BMP180;2808;51.240;6.794;2023-04-03T09:55:58;102579.00;;;6.60
5571;BMP180;2808;51.240;6.794;2023-04-03T09:58:31;102588.00;;;6.80
5571;BMP180;2808;51.240;6.794;2023-04-03T10:01:04;102589.00;;;6.80
5571;BMP180;2808;51.240;6.794;2023-04-03T10:03:34;102590.00;;;6.90
5571;BMP180;2808;51.240;6.794;2023-04-03T10:06:03;102582.00;;;6.80
5571;BMP180;2808;51.240;6.794;2023-04-03T10:08:35;102589.00;;;6.80
5571;BMP180;2808;51.240;6.794;2023-04-03T10:11:13;102567.00;;;6.80
5571;BMP180;2808;51.240;6.794;2023-04-03T10:13:59;102585.00;;;6.70
5571;BMP180;2808;51.240;6.794;2023-04-03T10:17:09;102577.00;;;6.80
5571;BMP180;2808;51.240;6.794;2023-04-03T10:19:43;102604.00;;;7.00
5571;BMP180;2808;51.240;6.794;2023-04-03T10:22:20;102582.00;;;7.10
5571;BMP180;2808;51.240;6.794;2023-04-03T10:24:54;102585.00;;;7.10
5571;BMP180;2808;51.240;6.794;2023-04-03T10:30:29;102599.00;;;7.10
5571;BMP180;2808;51.240;6.794;2023-04-03T10:33:07;102576.00;;;7.00
5571;BMP180;2808;51.240;6.794;2023-04-03T10:35:42;102563.00;;;7.00
5571;BMP180;2808;51.240;6.794;2023-04-03T10:38:16;102556.00;;;7.10
5571;BMP180;2808;51.240;6.794;2023-04-03T10:40:55;102547.00;;;7.10
5571;BMP180;2808;51.240;6.794;2023-04-03T10:43:33;102576.00;;;7.20
5571;BMP180;2808;51.240;6.794;2023-04-03T10:46:07;102552.00;;;7.00
5571;BMP180;2808;51.240;6.794;2023-04-03T10:48:49;102548.00;;;7.10
5571;BMP180;2808;51.240;6.794;2023-04-03T10:51:25;102550.00;;;7.20
5571;BMP180;2808;51.240;6.794;2023-04-03T10:53:59;102547.00;;;7.30
5571;BMP180;2808;51.240;6.794;2023-04-03T10:56:34;102552.00;;;7.40
5571;BMP180;2808;51.240;6.794;2023-04-03T10:59:19;102555.00;;;7.50
5571;BMP180;2808;51.240;6.794;2023-04-03T11:01:51;102539.00;;;7.40
5571;BMP180;2808;51.240;6.794;2023-04-03T11:04:21;102537.00;;;7.30
5571;BMP180;2808;51.240;6.794;2023-04-03T11:06:51;102550.00;;;7.30
5571;BMP180;2808;51.240;6.794;2023-04-03T11:09:24;102523.00;;;7.40
5571;BMP180;2808;51.240;6.794;2023-04-03T11:11:57;102526.00;;;7.30
5571;BMP180;2808;51.240;6.794;2023-04-03T11:14:29;102522.00;;;7.40
5571;BMP180;2808;51.240;6.794;2023-04-03T11:17:06;102517.00;;;7.30
5571;BMP180;2808;51.240;6.794;2023-04-03T11:19:50;102512.00;;;7.40
5571;BMP180;2808;51.240;6.794;2023-04-03T11:22:25;102512.00;;;7.40
5571;BMP180;2808;51.240;6.794;2023-04-03T11:24:59;102499.00;;;7.50
5571;BMP180;2808;51.240;6.794;2023-04-03T11:27:37;102510.00;;;7.60
5571;BMP180;2808;51.240;6.794;2023-04-03T11:30:09;102511.00;;;7.60
5571;BMP180;2808;51.240;6.794;2023-04-03T11:35:37;102540.00;;;7.70
5571;BMP180;2808;51.240;6.794;2023-04-03T11:38:05;102521.00;;;7.70
5571;BMP180;2808;51.240;6.794;2023-04-03T11:40:35;102516.00;;;7.70
5571;BMP180;2808;51.240;6.794;2023-04-03T11:43:14;102507.00;;;7.70
5571;BMP180;2808;51.240;6.794;2023-04-03T11:45:56;102498.00;;;7.80
5571;BMP180;2808;51.240;6.794;2023-04-03T11:48:50;102504.00;;;7.90
5571;BMP180;2808;51.240;6.794;2023-04-03T11:51:43;102492.00;;;7.90
5571;BMP180;2808;51.240;6.794;2023-04-03T11:57:44;102510.00;;;7.90
5571;BMP180;2808;51.240;6.794;2023-04-03T12:00:51;102494.00;;;7.80
5571;BMP180;2808;51.240;6.794;2023-04-03T12:03:33;102491.00;;;7.80
5571;BMP180;2808;51.240;6.794;2023-04-03T12:09:31;102476.00;;;7.90
5571;BMP180;2808;51.240;6.794;2023-04-03T12:12:01;102486.00;;;7.90
5571;BMP180;2808;51.240;6.794;2023-04-03T12:14:48;102479.00;;;7.90
5571;BMP180;2808;51.240;6.794;2023-04-03T12:17:22;102486.00;;;7.90
5571;BMP180;2808;51.240;6.794;2023-04-03T12:19:52;102489.00;;;7.90
5571;BMP180;2808;51.240;6.794;2023-04-03T12:22:20;102482.00;;;7.80
5571;BMP180;2808;51.240;6.794;2023-04-03T12:24:51;102485.00;;;7.70
5571;BMP180;2808;51.240;6.794;2023-04-03T12:27:24;102483.00;;;7.70
5571;BMP180;2808;51.240;6.794;2023-04-03T12:30:00;102471.00;;;7.70
5571;BMP180;2808;51.240;6.794;2023-04-03T12:32:50;102470.00;;;7.80
5571;BMP180;2808;51.240;6.794;2023-04-03T12:35:27;102459.00;;;7.90
5571;BMP180;2808;51.240;6.794;2023-04-03T12:38:19;102462.00;;;8.10
5571;BMP180;2808;51.240;6.794;2023-04-03T12:40:55;102466.00;;;8.20
5571;BMP180;2808;51.240;6.794;2023-04-03T12:43:39;102465.00;;;8.10
5571;BMP180;2808;51.240;6.794;2023-04-03T12:46:13;102456.00;;;8.20
5571;BMP180;2808;51.240;6.794;2023-04-03T12:48:48;102463.00;;;8.10
5571;BMP180;2808;51.240;6.794;2023-04-03T12:51:19;102463.00;;;8.10
5571;BMP180;2808;51.240;6.794;2023-04-03T12:53:49;102460.00;;;8.20
5571;BMP180;2808;51.240;6.794;2023-04-03T12:56:22;102451.00;;;8.20
5571;BMP180;2808;51.240;6.794;2023-04-03T12:58:51;102437.00;;;8.00
5571;BMP180;2808;51.240;6.794;2023-04-03T13:01:23;102437.00;;;8.20
5571;BMP180;2808;51.240;6.794;2023-04-03T13:03:54;102469.00;;;8.10
5571;BMP180;2808;51.240;6.794;2023-04-03T13:06:30;102441.00;;;8.00
5571;BMP180;2808;51.240;6.794;2023-04-03T13:09:01;102418.00;;;8.00
5571;BMP180;2808;51.240;6.794;2023-04-03T13:11:35;102441.00;;;8.20
5571;BMP180;2808;51.240;6.794;2023-04-03T13:14:14;102432.00;;;8.10
5571;BMP180;2808;51.240;6.794;2023-04-03T13:16:42;102430.00;;;8.10
5571;BMP180;2808;51.240;6.794;2023-04-03T13:19:16;102417.00;;;8.20
5571;BMP180;2808;51.240;6.794;2023-04-03T13:21:45;102434.00;;;8.20
5571;BMP180;2808;51.240;6.794;2023-04-03T13:24:13;102436.00;;;8.20
5571;BMP180;2808;51.240;6.794;2023-04-03T13:26:42;102436.00;;;8.10
5571;BMP180;2808;51.240;6.794;2023-04-03T13:29:23;102421.00;;;8.10
5571;BMP180;2808;51.240;6.794;2023-04-03T13:31:53;102425.00;;;8.10
5571;BMP180;2808;51.240;6.794;2023-04-03T13:34:23;102430.00;;;8.00
5571;BMP180;2808;51.240;6.794;2023-04-03T13:36:58;102416.00;;;8.10
5571;BMP180;2808;51.240;6.794;2023-04-03T13:39:28;102414.00;;;8.10
5571;BMP180;2808;51.240;6.794;2023-04-03T13:41:58;102425.00;;;8.10
5571;BMP180;2808;51.240;6.794;2023-04-03T13:44:31;102439.00;;;8.10
5571;BMP180;2808;51.240;6.794;2023-04-03T13:47:01;102429.00;;;8.00
5571;BMP180;2808;51.240;6.794;2023-04-03T13:49:42;102429.00;;;8.10
5571;BMP180;2808;51.240;6.794;2023-04-03T13:52:23;102424.00;;;8.10
5571;BMP180;2808;51.240;6.794;2023-04-03T13:54:55;102412.00;;;8.10
5571;BMP180;2808;51.240;6.794;2023-04-03T13:57:25;102414.00;;;8.10
5571;BMP180;2808;51.240;6.794;2023-04-03T13:59:53;102418.00;;;8.20
5571;BMP180;2808;51.240;6.794;2023-04-03T14:02:28;102405.00;;;8.10
5571;BMP180;2808;51.240;6.794;2023-04-03T14:04:58;102397.00;;;8.10
5571;BMP180;2808;51.240;6.794;2023-04-03T14:07:28;102406.00;;;8.20
5571;BMP180;2808;51.240;6.794;2023-04-03T14:09:56;102405.00;;;8.10
5571;BMP180;2808;51.240;6.794;2023-04-03T14:12:29;102403.00;;;8.10
5571;BMP180;2808;51.240;6.794;2023-04-03T14:14:59;102377.00;;;8.20
5571;BMP180;2808;51.240;6.794;2023-04-03T14:17:28;102388.00;;;8.20
5571;BMP180;2808;51.240;6.794;2023-04-03T14:19:56;102384.00;;;8.30
5571;BMP180;2808;51.240;6.794;2023-04-03T14:22:26;102389.00;;;8.30
5571;BMP180;2808;51.240;6.794;2023-04-03T14:24:54;102402.00;;;8.30
5571;BMP180;2808;51.240;6.794;2023-04-03T14:27:24;102396.00;;;8.10
5571;BMP180;2808;51.240;6.794;2023-04-03T14:29:55;102386.00;;;8.10
5571;BMP180;2808;51.240;6.794;2023-04-03T14:32:24;102367.00;;;8.10
5571;BMP180;2808;51.240;6.794;2023-04-03T14:34:52;102366.00;;;8.20
5571;BMP180;2808;51.240;6.794;2023-04-03T14:37:23;102383.00;;;8.30
5571;BMP180;2808;51.240;6.794;2023-04-03T14:39:53;102366.00;;;8.40
5571;BMP180;2808;51.240;6.794;2023-04-03T14:42:23;102363.00;;;8.40
5571;BMP180;2808;51.240;6.794;2023-04-03T14:44:53;102370.00;;;8.40
5571;BMP180;2808;51.240;6.794;2023-04-03T14:47:22;102372.00;;;8.30
5571;BMP180;2808;51.240;6.794;2023-04-03T14:49:51;102366.00;;;8.20
5571;BMP180;2808;51.240;6.794;2023-04-03T14:52:23;102357.00;;;8.30
5571;BMP180;2808;51.240;6.794;2023-04-03T14:54:52;102365.00;;;8.20
5571;BMP180;2808;51.240;6.794;2023-04-03T14:57:23;102359.00;;;8.20
5571;BMP180;2808;51.240;6.794;2023-04-03T14:59:51;102371.00;;;8.30
5571;BMP180;2808;51.240;6.794;2023-04-03T15:02:27;102358.00;;;8.20
5571;BMP180;2808;51.240;6.794;2023-04-03T15:04:55;102362.00;;;8.20
5571;BMP180;2808;51.240;6.794;2023-04-03T15:07:24;102375.00;;;8.10
5571;BMP180;2808;51.240;6.794;2023-04-03T15:09:52;102360.00;;;8.10
5571;BMP180;2808;51.240;6.794;2023-04-03T15:12:22;102347.00;;;8.10
5571;BMP180;2808;51.240;6.794;2023-04-03T15:14:49;102356.00;;;8.10
5571;BMP180;2808;51.240;6.794;2023-04-03T15:17:19;102369.00;;;8.20
5571;BMP180;2808;51.240;6.794;2023-04-03T15:19:49;102354.00;;;8.10
5571;BMP180;2808;51.240;6.794;2023-04-03T15:22:19;102370.00;;;8.10
5571;BMP180;2808;51.240;6.794;2023-04-03T15:24:47;102357.00;;;8.00
5571;BMP180;2808;51.240;6.794;2023-04-03T15:27:14;102362.00;;;8.10
5571;BMP180;2808;51.240;6.794;2023-04-03T15:29:43;102363.00;;;8.10
5571;BMP180;2808;51.240;6.794;2023-04-03T15:32:13;102361.00;;;7.90
5571;BMP180;2808;51.240;6.794;2023-04-03T15:34:41;102383.00;;;7.90
5571;BMP180;2808;51.240;6.794;2023-04-03T15:37:10;102359.00;;;7.90